Time;durP1;ratioP1;P1;durP2;ratioP2;P2;SDS_P1;SDS_P2;PMS_P1;PMS_P2;Temp;Humidity;BMP_temperature;BMP_pressure;BME280_temperature;BME280_humidity;BME280_pressure;Samples;Min_cycle;Max_cycle;Signal;HPM_P1;HPM_P2
2021/07/27 00:01:50;;;;;;;0.30;0.30;;;19.90;99.90;;;;;;5111700;28;20180;-89
2021/07/27 00:04:16;;;;;;;0.20;0.20;;;19.80;99.90;;;;;;5116379;28;20180;-90
2021/07/27 00:06:41;;;;;;;0.23;0.23;;;19.80;99.90;;;;;;5115741;28;20200;-88
2021/07/27 00:09:07;;;;;;;0.43;0.43;;;19.70;99.90;;;;;;5109931;28;20218;-89
2021/07/27 00:11:37;;;;;;;0.30;0.30;;;19.80;99.90;;;;;;5113153;28;20180;-88
2021/07/27 00:14:04;;;;;;;0.40;0.40;;;19.80;99.90;;;;;;5098736;28;20644;-88
2021/07/27 00:16:29;;;;;;;0.70;0.40;;;19.80;99.90;;;;;;5094758;28;20199;-88
2021/07/27 00:18:55;;;;;;;0.30;0.30;;;19.80;99.90;;;;;;5088753;28;20172;-88
2021/07/27 00:21:20;;;;;;;0.30;0.30;;;19.70;99.90;;;;;;5102878;28;20243;-88
2021/07/27 00:23:46;;;;;;;0.30;0.30;;;19.70;99.90;;;;;;5098471;28;20212;-88
2021/07/27 00:26:13;;;;;;;0.30;0.30;;;19.70;99.90;;;;;;5094720;28;20192;-88
2021/07/27 00:28:39;;;;;;;0.20;0.20;;;19.70;99.90;;;;;;5107673;28;20191;-88
2021/07/27 00:31:07;;;;;;;0.27;0.27;;;19.70;99.90;;;;;;5097132;28;20858;-88
2021/07/27 00:33:32;;;;;;;0.70;0.70;;;19.70;99.90;;;;;;5089860;28;20185;-88
2021/07/27 00:36:00;;;;;;;0.50;0.50;;;19.60;99.90;;;;;;5085421;28;20259;-88
2021/07/27 00:38:25;;;;;;;1.03;0.70;;;19.60;99.90;;;;;;5094472;28;20551;-88
2021/07/27 00:40:51;;;;;;;0.37;0.37;;;19.60;99.90;;;;;;5092676;28;20257;-88
2021/07/27 00:43:19;;;;;;;0.40;0.40;;;19.60;99.90;;;;;;5088475;28;20270;-88
2021/07/27 00:45:45;;;;;;;0.77;0.40;;;19.70;99.90;;;;;;5102567;28;20187;-88
2021/07/27 00:48:11;;;;;;;1.27;0.70;;;19.70;99.90;;;;;;5104123;28;20207;-88
2021/07/27 00:50:37;;;;;;;4.23;0.33;;;19.70;99.90;;;;;;5092406;28;20668;-88
2021/07/27 00:53:04;;;;;;;0.27;0.27;;;19.80;99.90;;;;;;5097030;28;20187;-88
2021/07/27 00:55:30;;;;;;;0.40;0.40;;;19.80;99.90;;;;;;5109283;28;20309;-88
2021/07/27 00:57:57;;;;;;;0.50;0.50;;;19.80;99.90;;;;;;5098573;28;20278;-88
2021/07/27 01:00:24;;;;;;;0.30;0.30;;;19.80;99.90;;;;;;5099069;28;20216;-88
2021/07/27 01:02:50;;;;;;;0.40;0.40;;;19.80;99.90;;;;;;5103987;28;21170;-88
2021/07/27 01:05:16;;;;;;;0.40;0.40;;;19.70;99.90;;;;;;5090434;28;20559;-88
2021/07/27 01:07:42;;;;;;;0.30;0.30;;;19.60;99.90;;;;;;5098301;28;20204;-88
2021/07/27 01:10:10;;;;;;;0.77;0.77;;;19.60;99.90;;;;;;5081712;28;20196;-87
2021/07/27 01:12:36;;;;;;;0.30;0.30;;;19.50;99.90;;;;;;5092440;28;20191;-88
2021/07/27 01:15:03;;;;;;;1.17;0.50;;;19.50;99.90;;;;;;5094188;28;20180;-88
2021/07/27 01:17:29;;;;;;;0.20;0.20;;;19.50;99.90;;;;;;5097934;28;20189;-88
2021/07/27 01:39:26;;;;;;;0.40;0.40;;;19.30;99.90;;;;;;5108874;28;20254;-88
2021/07/27 01:42:06;;;;;;;0.30;0.30;;;19.30;99.90;;;;;;5104108;28;20186;-88
2021/07/27 01:44:46;;;;;;;0.20;0.20;;;19.20;99.90;;;;;;5101467;28;20188;-88
2021/07/27 01:47:14;;;;;;;0.50;0.50;;;19.20;99.90;;;;;;5091479;28;20647;-88
2021/07/27 01:49:41;;;;;;;1.07;0.60;;;19.20;99.90;;;;;;5093511;28;20231;-88
2021/07/27 01:52:10;;;;;;;0.33;0.30;;;19.20;99.90;;;;;;5095156;28;20181;-88
2021/07/27 01:54:45;;;;;;;0.33;0.33;;;19.20;99.90;;;;;;5103856;28;20208;-88
2021/07/27 01:57:12;;;;;;;1.00;1.00;;;19.20;99.90;;;;;;5090942;28;20540;-88
2021/07/27 01:59:38;;;;;;;0.20;0.20;;;19.10;99.90;;;;;;5086972;28;20254;-88
2021/07/27 02:02:05;;;;;;;0.20;0.20;;;19.00;99.90;;;;;;5096527;28;20677;-88
2021/07/27 02:04:54;;;;;;;0.90;0.60;;;19.00;99.90;;;;;;5097548;28;20207;-88
2021/07/27 02:07:20;;;;;;;0.50;0.50;;;19.00;99.90;;;;;;5099307;28;20617;-88
2021/07/27 02:09:48;;;;;;;0.30;0.30;;;18.90;99.90;;;;;;5106746;28;20204;-88
2021/07/27 02:12:19;;;;;;;0.40;0.30;;;18.90;99.90;;;;;;5103240;28;20648;-88
2021/07/27 02:15:05;;;;;;;0.23;0.23;;;18.80;99.90;;;;;;5088529;28;20214;-88
2021/07/27 02:17:31;;;;;;;0.43;0.43;;;18.70;99.90;;;;;;5101472;28;20186;-89
2021/07/27 02:20:01;;;;;;;0.20;0.20;;;18.60;99.90;;;;;;5087606;28;20284;-88
2021/07/27 02:22:27;;;;;;;0.40;0.40;;;18.60;99.90;;;;;;5085947;28;20284;-88
2021/07/27 02:24:53;;;;;;;0.50;0.50;;;18.60;99.90;;;;;;5105480;28;20207;-89
2021/07/27 02:27:18;;;;;;;0.23;0.23;;;18.70;99.90;;;;;;5098995;28;20242;-90
2021/07/27 02:29:45;;;;;;;0.30;0.30;;;18.80;99.90;;;;;;5094329;28;20585;-88
2021/07/27 02:32:11;;;;;;;0.30;0.30;;;18.70;99.90;;;;;;5106749;28;20537;-88
2021/07/27 02:34:37;;;;;;;0.97;0.30;;;18.80;99.90;;;;;;5107869;28;20224;-88
2021/07/27 02:37:03;;;;;;;0.43;0.43;;;18.80;99.90;;;;;;5090982;28;20212;-88
2021/07/27 02:39:31;;;;;;;0.20;0.20;;;18.80;99.90;;;;;;5107193;28;20684;-88
2021/07/27 02:42:04;;;;;;;0.13;0.13;;;18.90;99.90;;;;;;5102655;28;20203;-88
2021/07/27 02:44:30;;;;;;;1.10;1.07;;;18.90;99.90;;;;;;5101135;28;20188;-88
2021/07/27 02:46:55;;;;;;;0.30;0.30;;;18.90;99.90;;;;;;5093852;28;20211;-88
2021/07/27 02:49:21;;;;;;;0.30;0.30;;;18.80;99.90;;;;;;5104367;28;20208;-88
2021/07/27 02:51:50;;;;;;;0.30;0.30;;;18.80;99.90;;;;;;5100506;28;20204;-88
2021/07/27 02:54:16;;;;;;;0.27;0.27;;;18.80;99.90;;;;;;5113442;28;20172;-88
2021/07/27 02:56:42;;;;;;;0.30;0.30;;;18.80;99.90;;;;;;5099027;28;20237;-88
2021/07/27 02:59:08;;;;;;;0.10;0.10;;;18.80;99.90;;;;;;5098401;28;20685;-88
2021/07/27 03:01:33;;;;;;;0.50;0.30;;;18.70;99.90;;;;;;5099182;28;20180;-88
2021/07/27 03:03:59;;;;;;;0.20;0.20;;;18.70;99.90;;;;;;5080052;28;20175;-88
2021/07/27 03:06:29;;;;;;;0.30;0.30;;;18.60;99.90;;;;;;5100696;28;20301;-87
2021/07/27 03:11:21;;;;;;;0.20;0.20;;;18.40;99.90;;;;;;5100490;28;20212;-88
2021/07/27 03:13:47;;;;;;;0.40;0.40;;;18.30;99.90;;;;;;5085498;28;20176;-88
2021/07/27 03:16:29;;;;;;;0.63;0.63;;;18.20;99.90;;;;;;5094771;28;20176;-88
2021/07/27 03:18:56;;;;;;;0.43;0.20;;;17.90;99.90;;;;;;5095809;28;20176;-88
2021/07/27 03:21:26;;;;;;;0.40;0.40;;;17.80;99.90;;;;;;5095371;28;20181;-88
2021/07/27 03:23:53;;;;;;;0.37;0.33;;;17.80;99.90;;;;;;5089131;28;20192;-88
2021/07/27 03:26:20;;;;;;;0.60;0.60;;;17.80;99.90;;;;;;5105424;28;20176;-88
2021/07/27 03:28:47;;;;;;;0.50;0.50;;;17.90;99.90;;;;;;5105316;28;20229;-88
2021/07/27 03:31:13;;;;;;;0.60;0.50;;;18.00;99.90;;;;;;5098931;28;20565;-88
2021/07/27 03:33:39;;;;;;;0.40;0.40;;;18.10;99.90;;;;;;5096874;28;20177;-87
2021/07/27 03:36:05;;;;;;;0.30;0.30;;;18.10;99.90;;;;;;5093248;28;20186;-88
2021/07/27 03:38:32;;;;;;;0.20;0.20;;;18.20;99.90;;;;;;5105305;28;20173;-87
2021/07/27 03:41:06;;;;;;;0.33;0.33;;;18.20;99.90;;;;;;5111673;28;20210;-87
2021/07/27 03:43:32;;;;;;;0.30;0.30;;;18.10;99.90;;;;;;5097620;28;20573;-87
2021/07/27 03:45:58;;;;;;;1.50;0.60;;;17.90;99.90;;;;;;5104656;28;20185;-87
2021/07/27 03:48:23;;;;;;;0.40;0.40;;;17.70;99.90;;;;;;5097582;28;20200;-87
2021/07/27 03:50:49;;;;;;;0.17;0.17;;;17.70;99.90;;;;;;5104936;28;20257;-87
2021/07/27 03:53:20;;;;;;;0.40;0.40;;;17.80;99.90;;;;;;5096429;28;20230;-87
2021/07/27 03:55:45;;;;;;;0.37;0.37;;;17.80;99.90;;;;;;5091721;28;20230;-88
2021/07/27 03:58:16;;;;;;;0.20;0.20;;;17.90;99.90;;;;;;5091850;28;20561;-87
2021/07/27 04:00:42;;;;;;;0.20;0.20;;;18.10;99.90;;;;;;5083374;28;20233;-87
2021/07/27 04:03:08;;;;;;;0.20;0.20;;;18.30;99.90;;;;;;5106963;28;20221;-87
2021/07/27 04:05:34;;;;;;;0.30;0.30;;;18.50;99.90;;;;;;5081259;28;20187;-87
2021/07/27 04:08:00;;;;;;;1.33;0.30;;;18.70;99.90;;;;;;5105245;28;20199;-87
2021/07/27 04:10:26;;;;;;;0.87;0.33;;;18.80;99.90;;;;;;5103139;28;20200;-87
2021/07/27 04:12:52;;;;;;;0.67;0.67;;;18.90;99.90;;;;;;5085418;28;20213;-87
2021/07/27 04:15:23;;;;;;;0.43;0.43;;;19.40;99.90;;;;;;5090556;28;20568;-89
2021/07/27 04:17:49;;;;;;;0.50;0.50;;;19.90;99.90;;;;;;5102539;28;20335;-87
2021/07/27 04:20:15;;;;;;;0.50;0.50;;;20.00;99.90;;;;;;5099581;28;20249;-87
2021/07/27 04:22:40;;;;;;;0.37;0.37;;;19.80;99.90;;;;;;5094091;28;20208;-87
2021/07/27 04:25:06;;;;;;;0.67;0.63;;;19.60;99.90;;;;;;5090116;28;20193;-87
2021/07/27 04:27:31;;;;;;;0.40;0.40;;;19.60;99.90;;;;;;5105945;28;20208;-87
2021/07/27 04:29:57;;;;;;;0.20;0.20;;;19.90;99.90;;;;;;5094714;28;20204;-87
2021/07/27 04:32:23;;;;;;;0.40;0.40;;;19.90;99.90;;;;;;5106096;28;20718;-87
2021/07/27 04:34:52;;;;;;;0.67;0.60;;;19.90;99.90;;;;;;5107278;28;20264;-87
2021/07/27 04:37:20;;;;;;;0.40;0.40;;;19.90;99.90;;;;;;5086919;28;20198;-87
2021/07/27 04:39:45;;;;;;;0.50;0.50;;;20.00;99.90;;;;;;5100775;28;20208;-86
2021/07/27 04:42:13;;;;;;;0.50;0.40;;;20.10;99.90;;;;;;5095813;28;20183;-87
2021/07/27 04:44:52;;;;;;;2.47;0.60;;;20.20;99.90;;;;;;5092027;28;20559;-88
2021/07/27 04:47:18;;;;;;;0.50;0.40;;;20.20;99.90;;;;;;5084237;28;20203;-88
2021/07/27 04:49:44;;;;;;;0.17;0.17;;;20.30;99.90;;;;;;5103258;28;20203;-87
2021/07/27 04:52:09;;;;;;;0.30;0.30;;;20.30;99.90;;;;;;5101559;28;20176;-87
2021/07/27 04:54:50;;;;;;;0.47;0.20;;;20.40;99.90;;;;;;5103326;28;20184;-87
2021/07/27 04:57:16;;;;;;;0.20;0.20;;;20.30;99.90;;;;;;5082804;28;20192;-87
2021/07/27 04:59:41;;;;;;;0.57;0.53;;;20.20;99.90;;;;;;5092477;28;20211;-87
2021/07/27 05:02:07;;;;;;;0.50;0.50;;;20.30;99.90;;;;;;5095214;28;20191;-88
2021/07/27 05:04:37;;;;;;;1.10;0.60;;;19.70;99.90;;;;;;5097007;28;20188;-88
2021/07/27 05:07:03;;;;;;;0.27;0.27;;;19.50;99.90;;;;;;5108057;28;20221;-87
2021/07/27 05:09:29;;;;;;;0.30;0.30;;;19.70;99.90;;;;;;5092844;28;20291;-87
2021/07/27 05:11:56;;;;;;;0.20;0.20;;;19.30;99.90;;;;;;5098000;28;20264;-87
2021/07/27 05:14:22;;;;;;;0.83;0.50;;;19.20;99.90;;;;;;5099636;28;20294;-87
2021/07/27 05:17:12;;;;;;;0.53;0.53;;;19.00;99.90;;;;;;5095802;28;20192;-89
2021/07/27 05:19:51;;;;;;;0.57;0.57;;;19.00;99.90;;;;;;5091268;28;20299;-87
2021/07/27 05:22:18;;;;;;;1.17;0.60;;;19.10;99.90;;;;;;5098142;28;20199;-87
2021/07/27 05:24:43;;;;;;;0.20;0.20;;;19.10;99.90;;;;;;5101088;28;20181;-87
2021/07/27 05:27:09;;;;;;;0.57;0.57;;;19.10;99.90;;;;;;5093827;28;20225;-88
2021/07/27 05:29:34;;;;;;;0.20;0.20;;;19.00;99.90;;;;;;5094803;28;20687;-87
2021/07/27 05:32:04;;;;;;;0.80;0.60;;;19.20;99.90;;;;;;5089129;28;20275;-86
2021/07/27 05:34:29;;;;;;;0.37;0.37;;;19.30;99.90;;;;;;5096247;28;20185;-86
2021/07/27 05:36:55;;;;;;;0.43;0.43;;;19.50;99.90;;;;;;5101856;28;20194;-86
2021/07/27 05:39:20;;;;;;;0.40;0.40;;;19.50;99.90;;;;;;5100484;28;20211;-84
2021/07/27 05:41:47;;;;;;;0.30;0.30;;;19.60;99.90;;;;;;5083470;28;20195;-84
2021/07/27 05:44:12;;;;;;;0.20;0.20;;;19.30;99.90;;;;;;5092642;28;20194;-84
2021/07/27 05:46:38;;;;;;;0.40;0.40;;;19.40;99.90;;;;;;5079917;28;20216;-86
2021/07/27 05:49:08;;;;;;;0.60;0.60;;;19.20;99.90;;;;;;5095275;28;20184;-85
2021/07/27 05:51:34;;;;;;;0.30;0.30;;;19.20;99.90;;;;;;5094728;28;20188;-86
2021/07/27 05:53:59;;;;;;;0.57;0.53;;;19.20;99.90;;;;;;5096946;28;20192;-85
2021/07/27 05:56:25;;;;;;;0.40;0.40;;;19.70;99.90;;;;;;5089790;28;20241;-86
2021/07/27 05:58:53;;;;;;;0.37;0.37;;;20.10;99.90;;;;;;5092024;28;20549;-85
2021/07/27 06:01:19;;;;;;;0.43;0.43;;;20.40;99.90;;;;;;5106194;28;20798;-86
2021/07/27 06:03:44;;;;;;;0.20;0.20;;;20.70;99.90;;;;;;5105740;28;20271;-86
2021/07/27 06:06:10;;;;;;;0.20;0.20;;;21.00;99.90;;;;;;5096297;28;20185;-86
2021/07/27 06:08:35;;;;;;;0.40;0.40;;;21.40;99.90;;;;;;5100747;28;20289;-86
2021/07/27 06:11:05;;;;;;;0.80;0.80;;;21.80;99.90;;;;;;5091033;28;20197;-86
2021/07/27 06:13:30;;;;;;;0.60;0.60;;;22.10;99.90;;;;;;5095565;28;20181;-88
2021/07/27 06:15:56;;;;;;;0.77;0.50;;;22.30;99.90;;;;;;5100136;28;20199;-87
2021/07/27 06:18:21;;;;;;;2.00;0.80;;;22.20;99.90;;;;;;5091358;28;20204;-87
2021/07/27 06:20:47;;;;;;;1.23;0.90;;;21.50;99.90;;;;;;5095183;28;20688;-86
2021/07/27 06:23:12;;;;;;;0.70;0.70;;;21.20;99.90;;;;;;5101569;28;20199;-87
2021/07/27 06:25:38;;;;;;;0.30;0.30;;;21.00;99.90;;;;;;5099746;28;20237;-86
2021/07/27 06:28:05;;;;;;;0.47;0.47;;;21.00;99.90;;;;;;5097831;28;20215;-86
2021/07/27 06:30:30;;;;;;;0.87;0.57;;;21.40;99.90;;;;;;5082373;28;20207;-88
2021/07/27 06:32:57;;;;;;;0.60;0.60;;;21.70;99.90;;;;;;5088127;28;20177;-86
2021/07/27 06:35:23;;;;;;;0.47;0.40;;;21.80;99.90;;;;;;5100794;28;20179;-87
2021/07/27 06:37:48;;;;;;;0.30;0.30;;;21.90;99.90;;;;;;5090093;28;20238;-88
2021/07/27 06:40:14;;;;;;;0.30;0.30;;;21.90;99.90;;;;;;5089597;28;20355;-86
2021/07/27 06:42:40;;;;;;;0.67;0.67;;;21.90;99.90;;;;;;5099001;28;20642;-87
2021/07/27 06:45:06;;;;;;;0.80;0.63;;;21.90;99.90;;;;;;5100607;28;20184;-87
2021/07/27 06:47:33;;;;;;;0.53;0.53;;;21.90;99.90;;;;;;5101829;28;20209;-87
2021/07/27 06:49:59;;;;;;;0.60;0.60;;;21.90;99.90;;;;;;5084910;28;20204;-87
2021/07/27 06:52:24;;;;;;;0.70;0.60;;;22.00;99.90;;;;;;5095528;28;20188;-87
2021/07/27 06:54:50;;;;;;;0.33;0.33;;;22.10;99.90;;;;;;5105982;28;20192;-87
2021/07/27 06:57:16;;;;;;;0.40;0.40;;;22.20;99.90;;;;;;5098961;28;20188;-87
2021/07/27 06:59:41;;;;;;;1.70;1.00;;;22.20;99.90;;;;;;5095899;28;20700;-87
2021/07/27 07:02:07;;;;;;;0.20;0.20;;;22.40;99.90;;;;;;5102234;28;20181;-87
2021/07/27 07:04:32;;;;;;;0.60;0.60;;;22.50;99.90;;;;;;5103648;28;20271;-87
2021/07/27 07:06:58;;;;;;;0.60;0.60;;;22.40;99.90;;;;;;5094915;28;20200;-88
2021/07/27 07:09:24;;;;;;;0.37;0.37;;;22.50;99.90;;;;;;5096113;28;20236;-87
2021/07/27 07:11:49;;;;;;;0.73;0.73;;;22.70;99.90;;;;;;5101656;28;20269;-87
2021/07/27 07:14:15;;;;;;;0.60;0.60;;;22.70;99.90;;;;;;5090152;28;20640;-86
2021/07/27 07:16:41;;;;;;;0.47;0.47;;;22.90;99.90;;;;;;5085903;28;20238;-86
2021/07/27 07:19:06;;;;;;;0.47;0.47;;;23.10;99.90;;;;;;5074907;28;20184;-85
2021/07/27 07:21:32;;;;;;;0.83;0.30;;;23.00;99.90;;;;;;5096423;28;20215;-86
2021/07/27 07:23:57;;;;;;;0.50;0.50;;;23.00;99.90;;;;;;5100453;28;20192;-86
2021/07/27 07:26:23;;;;;;;0.80;0.80;;;22.70;99.90;;;;;;5091730;28;20191;-86
2021/07/27 07:28:48;;;;;;;0.30;0.30;;;22.60;99.90;;;;;;5085643;28;20176;-85
2021/07/27 07:31:16;;;;;;;0.50;0.40;;;22.60;99.90;;;;;;5077771;28;20205;-86
2021/07/27 07:33:43;;;;;;;0.77;0.53;;;22.50;99.90;;;;;;5083155;28;20656;-86
2021/07/27 07:36:13;;;;;;;3.50;0.90;;;22.60;99.90;;;;;;5080938;28;20177;-85
2021/07/27 07:38:40;;;;;;;0.63;0.63;;;22.60;99.90;;;;;;5092391;28;20229;-86
2021/07/27 07:41:09;;;;;;;0.47;0.47;;;22.50;99.90;;;;;;5097975;28;20278;-87
2021/07/27 07:43:36;;;;;;;0.70;0.70;;;22.50;99.90;;;;;;5090502;28;20184;-86
2021/07/27 07:46:02;;;;;;;0.60;0.60;;;22.50;99.90;;;;;;5085563;28;20264;-84
2021/07/27 07:48:27;;;;;;;0.60;0.60;;;22.40;99.90;;;;;;5092519;28;20209;-87
2021/07/27 07:50:53;;;;;;;0.60;0.60;;;22.60;99.90;;;;;;5099780;28;20695;-86
2021/07/27 07:53:18;;;;;;;0.67;0.67;;;22.60;99.90;;;;;;5098732;28;20181;-86
2021/07/27 07:55:44;;;;;;;0.90;0.90;;;22.70;99.90;;;;;;5093915;28;20680;-86
2021/07/27 07:58:10;;;;;;;1.43;0.70;;;22.80;99.90;;;;;;5081543;28;20181;-86
2021/07/27 08:00:35;;;;;;;2.03;0.63;;;23.00;99.90;;;;;;5105304;28;20211;-86
2021/07/27 08:03:05;;;;;;;1.33;1.07;;;23.00;99.90;;;;;;5079807;28;20184;-86
2021/07/27 08:05:30;;;;;;;0.53;0.53;;;23.00;99.90;;;;;;5084137;28;20182;-85
2021/07/27 08:07:56;;;;;;;0.93;0.80;;;23.10;99.90;;;;;;5089543;28;20215;-86
2021/07/27 08:10:22;;;;;;;0.53;0.53;;;23.10;99.90;;;;;;5081509;28;20273;-85
2021/07/27 08:12:48;;;;;;;1.83;0.40;;;23.30;99.90;;;;;;5085561;28;20191;-87
2021/07/27 08:15:14;;;;;;;1.40;1.00;;;23.40;99.90;;;;;;5079100;28;20837;-86
2021/07/27 08:17:42;;;;;;;0.67;0.63;;;23.40;99.90;;;;;;5092506;28;20192;-87
2021/07/27 08:20:09;;;;;;;0.70;0.70;;;23.40;99.90;;;;;;5083030;28;20201;-86
2021/07/27 08:22:39;;;;;;;0.93;0.60;;;23.50;99.90;;;;;;5087204;28;20242;-86
2021/07/27 08:25:16;;;;;;;0.47;0.47;;;23.70;99.90;;;;;;5091959;28;20181;-87
2021/07/27 08:27:43;;;;;;;2.20;0.67;;;23.90;99.90;;;;;;5089552;28;20208;-86
2021/07/27 08:30:10;;;;;;;0.67;0.67;;;24.10;99.90;;;;;;5088347;28;20207;-87
2021/07/27 08:32:35;;;;;;;0.67;0.57;;;24.30;99.90;;;;;;5088040;28;20188;-86
2021/07/27 08:35:01;;;;;;;1.50;0.50;;;24.50;99.90;;;;;;5094787;28;20164;-86
2021/07/27 08:37:27;;;;;;;0.80;0.80;;;24.20;99.90;;;;;;5085586;28;20575;-87
2021/07/27 08:39:59;;;;;;;0.57;0.57;;;24.20;99.90;;;;;;5093028;28;20607;-86
2021/07/27 08:42:28;;;;;;;0.70;0.70;;;24.00;99.90;;;;;;5091423;28;20215;-87
2021/07/27 08:44:57;;;;;;;0.47;0.47;;;24.10;99.90;;;;;;5102078;27;20189;-88
2021/07/27 08:47:24;;;;;;;0.97;0.87;;;24.20;99.90;;;;;;5094339;28;20278;-87
2021/07/27 08:49:49;;;;;;;1.13;0.87;;;24.10;99.90;;;;;;5095332;28;20197;-86
2021/07/27 08:52:15;;;;;;;0.73;0.73;;;23.80;99.90;;;;;;5098968;28;20184;-87
2021/07/27 08:54:43;;;;;;;0.53;0.53;;;23.60;99.90;;;;;;5086335;28;20212;-86
2021/07/27 08:57:14;;;;;;;0.60;0.60;;;23.80;99.90;;;;;;5087549;28;20177;-87
2021/07/27 08:59:40;;;;;;;1.07;0.57;;;24.10;99.90;;;;;;5081129;28;20703;-88
2021/07/27 09:02:10;;;;;;;0.30;0.30;;;24.30;99.90;;;;;;5100861;28;20185;-87
2021/07/27 09:04:35;;;;;;;1.30;0.93;;;24.20;99.90;;;;;;5097960;28;20212;-87
2021/07/27 09:07:03;;;;;;;1.07;0.70;;;24.60;99.90;;;;;;5092638;28;20687;-87
2021/07/27 09:09:30;;;;;;;0.83;0.83;;;24.80;99.90;;;;;;5094017;28;20205;-87
2021/07/27 09:11:57;;;;;;;0.40;0.40;;;25.10;99.90;;;;;;5088716;28;20202;-87
2021/07/27 09:14:25;;;;;;;1.20;0.67;;;25.50;99.90;;;;;;5095639;28;20753;-87
2021/07/27 09:16:52;;;;;;;0.97;0.87;;;25.80;99.90;;;;;;5097472;28;20187;-87
2021/07/27 09:19:18;;;;;;;0.50;0.50;;;25.80;99.90;;;;;;5111301;28;20233;-86
2021/07/27 09:21:45;;;;;;;1.03;1.03;;;26.10;99.90;;;;;;5097257;28;20207;-87
2021/07/27 09:24:20;;;;;;;0.67;0.43;;;26.20;99.90;;;;;;5095404;28;20219;-85
2021/07/27 09:27:05;;;;;;;0.77;0.73;;;26.20;99.90;;;;;;5097440;28;20687;-84
2021/07/27 09:29:31;;;;;;;1.20;0.83;;;25.80;99.90;;;;;;5090793;28;20236;-85
2021/07/27 09:32:01;;;;;;;0.67;0.57;;;25.60;99.90;;;;;;5108559;28;20177;-84
2021/07/27 09:34:29;;;;;;;0.40;0.40;;;25.60;99.90;;;;;;5092318;28;20187;-83
2021/07/27 09:37:05;;;;;;;1.90;0.67;;;26.00;99.90;;;;;;5088156;28;20213;-83
2021/07/27 09:39:31;;;;;;;0.37;0.37;;;26.30;99.90;;;;;;5086432;28;20210;-83
2021/07/27 09:42:02;;;;;;;1.00;1.00;;;26.60;99.90;;;;;;5083395;28;20203;-84
2021/07/27 09:44:30;;;;;;;0.83;0.83;;;26.90;99.90;;;;;;5099756;28;20185;-84
2021/07/27 09:46:57;;;;;;;0.97;0.50;;;27.00;99.90;;;;;;5106347;28;20559;-83
2021/07/27 09:49:24;;;;;;;0.40;0.40;;;26.90;99.90;;;;;;5085036;28;20207;-84
2021/07/27 09:51:50;;;;;;;0.97;0.80;;;26.90;99.90;;;;;;5094597;28;20196;-84
2021/07/27 09:54:18;;;;;;;0.83;0.67;;;26.80;99.90;;;;;;5104303;28;20188;-85
2021/07/27 09:56:44;;;;;;;1.43;1.03;;;26.60;99.90;;;;;;5094539;28;20302;-84
2021/07/27 09:59:15;;;;;;;0.97;0.97;;;26.50;99.90;;;;;;5098200;28;20234;-85
2021/07/27 10:01:47;;;;;;;0.67;0.67;;;26.30;99.90;;;;;;5099995;28;20176;-86
2021/07/27 10:04:19;;;;;;;0.60;0.60;;;26.20;99.90;;;;;;5096320;28;20211;-86
2021/07/27 10:06:48;;;;;;;1.33;1.20;;;26.50;99.90;;;;;;5094511;28;20200;-85
2021/07/27 10:09:26;;;;;;;0.70;0.70;;;26.30;99.90;;;;;;5085630;28;20208;-85
2021/07/27 10:11:52;;;;;;;1.63;1.00;;;26.60;99.90;;;;;;5085089;28;20223;-86
2021/07/27 10:14:19;;;;;;;2.07;0.77;;;26.10;99.90;;;;;;5089136;28;20265;-86
2021/07/27 10:16:46;;;;;;;1.80;0.90;;;26.60;99.90;;;;;;5089916;28;20185;-85
2021/07/27 10:19:13;;;;;;;1.13;0.87;;;26.90;99.90;;;;;;5091116;28;20214;-86
2021/07/27 10:21:39;;;;;;;1.17;1.10;;;27.00;99.90;;;;;;5088732;28;20241;-83
2021/07/27 10:24:19;;;;;;;0.97;0.50;;;27.20;99.90;;;;;;5111101;28;20743;-84
2021/07/27 10:26:45;;;;;;;0.73;0.70;;;27.40;99.90;;;;;;5100388;28;20267;-85
2021/07/27 10:29:11;;;;;;;0.77;0.73;;;27.50;99.90;;;;;;5103529;28;20175;-84
2021/07/27 10:31:45;;;;;;;0.83;0.83;;;27.70;99.90;;;;;;5099667;28;20199;-84
2021/07/27 10:34:12;;;;;;;0.80;0.80;;;27.60;99.90;;;;;;5101690;28;20176;-84
2021/07/27 10:36:43;;;;;;;1.07;1.00;;;27.50;99.90;;;;;;5104725;28;20187;-84
2021/07/27 10:39:11;;;;;;;0.73;0.47;;;27.30;99.90;;;;;;5095650;28;20726;-84
2021/07/27 10:41:48;;;;;;;1.30;0.57;;;27.30;99.90;;;;;;5097409;28;20233;-83
2021/07/27 10:44:20;;;;;;;0.73;0.73;;;27.40;99.90;;;;;;5090559;28;20186;-84
2021/07/27 10:46:49;;;;;;;1.60;1.13;;;27.30;99.90;;;;;;5088904;28;20200;-84
2021/07/27 10:49:25;;;;;;;1.63;0.70;;;27.10;99.90;;;;;;5105160;27;20200;-84
2021/07/27 10:51:58;;;;;;;0.87;0.70;;;27.10;99.90;;;;;;5091750;28;20300;-84
2021/07/27 10:54:33;;;;;;;1.60;0.97;;;27.10;99.90;;;;;;5086176;28;20195;-85
2021/07/27 10:57:02;;;;;;;1.37;1.27;;;27.10;99.90;;;;;;5084612;28;20207;-87
2021/07/27 10:59:31;;;;;;;1.27;0.70;;;27.20;99.90;;;;;;5096431;28;20252;-86
2021/07/27 11:02:09;;;;;;;1.03;1.03;;;27.60;99.90;;;;;;5098358;28;20180;-87
2021/07/27 11:04:35;;;;;;;1.67;1.53;;;27.70;99.90;;;;;;5098950;28;20181;-87
2021/07/27 11:07:15;;;;;;;1.30;0.90;;;27.80;99.90;;;;;;5094896;28;20682;-87
2021/07/27 11:09:49;;;;;;;0.60;0.60;;;27.80;99.90;;;;;;5088892;28;20200;-88
2021/07/27 11:12:34;;;;;;;0.60;0.60;;;27.90;99.90;;;;;;5102791;28;20180;-88
2021/07/27 11:15:20;;;;;;;1.20;1.10;;;27.90;99.90;;;;;;5093407;28;20181;-86
2021/07/27 11:17:49;;;;;;;0.93;0.83;;;28.00;99.90;;;;;;5098813;28;20671;-85
2021/07/27 11:20:17;;;;;;;1.33;1.23;;;28.20;99.90;;;;;;5083182;28;20250;-85
2021/07/27 11:22:46;;;;;;;0.97;0.90;;;28.10;99.90;;;;;;5094283;28;20219;-85
2021/07/27 11:25:12;;;;;;;2.03;0.80;;;27.90;99.90;;;;;;5099674;28;20192;-84
2021/07/27 11:27:38;;;;;;;1.83;1.00;;;28.00;99.90;;;;;;5097127;28;20767;-85
2021/07/27 11:30:09;;;;;;;1.00;0.63;;;28.00;99.90;;;;;;5086576;28;20204;-85
2021/07/27 11:32:42;;;;;;;0.43;0.43;;;27.70;99.90;;;;;;5101056;28;20230;-85
2021/07/27 11:35:12;;;;;;;0.77;0.77;;;27.90;99.90;;;;;;5088774;28;20694;-85
2021/07/27 11:37:39;;;;;;;0.80;0.80;;;27.80;99.90;;;;;;5089309;28;20188;-84
2021/07/27 11:40:07;;;;;;;1.43;1.33;;;27.80;99.90;;;;;;5095385;28;20212;-85
2021/07/27 11:42:34;;;;;;;1.27;1.17;;;27.80;99.90;;;;;;5092813;28;20232;-87
2021/07/27 11:45:02;;;;;;;1.40;1.30;;;27.80;99.90;;;;;;5095384;28;20302;-84
2021/07/27 11:47:43;;;;;;;1.07;0.90;;;27.80;99.90;;;;;;5086890;28;20204;-85
2021/07/27 11:50:14;;;;;;;1.13;1.00;;;27.80;99.90;;;;;;5088344;28;20213;-84
2021/07/27 11:52:41;;;;;;;1.07;1.00;;;27.70;99.90;;;;;;5081023;28;20185;-84
2021/07/27 11:55:07;;;;;;;1.17;0.90;;;27.70;99.90;;;;;;5092687;28;20180;-85
2021/07/27 11:57:34;;;;;;;1.70;0.80;;;27.60;99.90;;;;;;5081964;28;20196;-85
2021/07/27 12:00:16;;;;;;;1.30;1.20;;;27.70;99.90;;;;;;5085300;28;20201;-85
2021/07/27 12:02:43;;;;;;;1.17;0.70;;;28.00;99.90;;;;;;5099606;28;20686;-86
2021/07/27 12:05:10;;;;;;;0.80;0.77;;;28.00;99.90;;;;;;5085164;28;20204;-85
2021/07/27 12:07:38;;;;;;;1.00;0.90;;;28.10;99.90;;;;;;5088108;28;20219;-85
2021/07/27 12:10:05;;;;;;;1.40;1.30;;;28.10;99.90;;;;;;5098137;28;20204;-86
2021/07/27 12:12:31;;;;;;;2.30;1.23;;;27.60;99.90;;;;;;5085272;28;20181;-86
2021/07/27 12:14:56;;;;;;;1.03;0.93;;;27.50;99.90;;;;;;5086436;28;20322;-88
2021/07/27 12:17:22;;;;;;;1.20;1.10;;;27.60;99.90;;;;;;5091818;28;20187;-88
2021/07/27 12:19:48;;;;;;;0.87;0.87;;;27.70;99.90;;;;;;5093802;28;20218;-87
2021/07/27 12:22:14;;;;;;;1.07;1.00;;;27.70;99.90;;;;;;5090054;28;20664;-87
2021/07/27 12:24:40;;;;;;;0.47;0.47;;;27.80;99.90;;;;;;5095557;28;20184;-87
2021/07/27 12:27:05;;;;;;;0.83;0.83;;;28.00;99.90;;;;;;5091994;28;20663;-87
2021/07/27 12:29:31;;;;;;;0.60;0.60;;;28.20;99.90;;;;;;5093542;28;20624;-87
2021/07/27 12:31:57;;;;;;;0.77;0.77;;;28.10;99.90;;;;;;5091919;28;20172;-87
2021/07/27 12:34:22;;;;;;;1.13;1.13;;;28.30;99.90;;;;;;5104113;28;20185;-88
2021/07/27 12:36:48;;;;;;;1.47;1.30;;;28.10;99.90;;;;;;5099713;28;20276;-87
2021/07/27 12:39:13;;;;;;;0.87;0.87;;;28.20;99.90;;;;;;5105602;28;20303;-87
2021/07/27 12:41:40;;;;;;;4.63;1.37;;;28.40;99.90;;;;;;5088802;28;20216;-87
2021/07/27 12:44:05;;;;;;;3.60;1.60;;;28.00;99.90;;;;;;5089468;28;20199;-86
2021/07/27 12:46:34;;;;;;;0.80;0.80;;;27.70;99.90;;;;;;5080636;28;20288;-87
2021/07/27 12:48:59;;;;;;;2.03;1.33;;;27.90;99.90;;;;;;5098770;28;20247;-87
2021/07/27 12:51:25;;;;;;;0.90;0.73;;;28.10;99.90;;;;;;5083470;28;20640;-87
2021/07/27 12:53:51;;;;;;;0.97;0.97;;;28.30;99.90;;;;;;5095487;28;20180;-87
2021/07/27 12:56:17;;;;;;;0.57;0.57;;;28.10;99.90;;;;;;5094885;28;20189;-87
2021/07/27 12:58:42;;;;;;;0.80;0.80;;;28.10;99.90;;;;;;5085994;28;20565;-87
2021/07/27 13:01:08;;;;;;;1.30;1.20;;;28.20;99.90;;;;;;5094062;28;20250;-87
2021/07/27 13:03:34;;;;;;;0.67;0.67;;;28.30;99.90;;;;;;5093287;28;20603;-86
2021/07/27 13:05:59;;;;;;;1.17;0.90;;;28.20;99.90;;;;;;5098169;28;20681;-87
2021/07/27 13:08:25;;;;;;;1.53;1.20;;;28.00;99.90;;;;;;5104755;28;20215;-87
2021/07/27 13:10:51;;;;;;;2.20;1.07;;;27.70;99.90;;;;;;5098768;28;20673;-87
2021/07/27 13:13:17;;;;;;;1.83;1.20;;;27.60;99.90;;;;;;5094356;28;20195;-87